Time;durP1;ratioP1;P1;durP2;ratioP2;P2;SDS_P1;SDS_P2;PMS_P1;PMS_P2;Temp;Humidity;BMP_temperature;BMP_pressure;BME280_temperature;BME280_humidity;BME280_pressure;Samples;Min_cycle;Max_cycle;Signal;HPM_P1;HPM_P2
2022/04/24 00:00:51;;;;;;;;;;;16.30;95.60;;;;;;5091718;28;19908;-73
2022/04/24 00:03:51;;;;;;;;;;;16.30;95.60;;;;;;5091747;28;19916;-71
2022/04/24 00:06:18;;;;;;;;;;;16.20;95.70;;;;;;5091403;28;19933;-71
2022/04/24 00:08:43;;;;;;;;;;;16.30;95.80;;;;;;5091855;28;19931;-73
2022/04/24 00:14:12;;;;;;;;;;;16.20;95.90;;;;;;5091662;28;20021;-72
2022/04/24 00:16:53;;;;;;;;;;;16.20;95.90;;;;;;5091636;28;19912;-73
2022/04/24 00:19:19;;;;;;;;;;;16.20;96.00;;;;;;5089769;28;19908;-73
2022/04/24 00:21:45;;;;;;;;;;;16.20;96.10;;;;;;5091461;28;20236;-71
2022/04/24 00:24:12;;;;;;;;;;;16.30;96.10;;;;;;5091538;28;20237;-71
2022/04/24 00:26:38;;;;;;;;;;;16.30;96.00;;;;;;5091475;28;19908;-72
2022/04/24 00:29:05;;;;;;;;;;;16.20;96.10;;;;;;5091768;28;19972;-74
2022/04/24 00:31:31;;;;;;;;;;;16.20;96.20;;;;;;5091538;28;20005;-72
2022/04/24 00:33:57;;;;;;;;;;;16.20;96.20;;;;;;5091420;28;20308;-73
2022/04/24 00:36:22;;;;;;;;;;;16.20;96.20;;;;;;5091587;28;20277;-72
2022/04/24 00:38:48;;;;;;;;;;;16.20;96.10;;;;;;5091607;28;19920;-73
2022/04/24 00:41:14;;;;;;;;;;;16.20;96.10;;;;;;5091318;28;19973;-71
2022/04/24 00:43:40;;;;;;;;;;;16.20;96.20;;;;;;5091185;28;19952;-71
2022/04/24 00:46:12;;;;;;;;;;;16.10;96.30;;;;;;5091071;28;19957;-73
2022/04/24 00:48:38;;;;;;;;;;;16.10;96.40;;;;;;5089423;28;20355;-72
2022/04/24 00:51:04;;;;;;;;;;;16.00;96.60;;;;;;5091134;28;19953;-73
2022/04/24 00:53:30;;;;;;;;;;;16.00;96.70;;;;;;5072613;28;19931;-72
2022/04/24 00:55:56;;;;;;;;;;;16.00;96.60;;;;;;5091184;28;19927;-71
2022/04/24 00:58:22;;;;;;;;;;;16.00;96.70;;;;;;5091161;28;19957;-72
2022/04/24 01:00:48;;;;;;;;;;;16.00;96.70;;;;;;5090723;28;19908;-73
2022/04/24 01:03:14;;;;;;;;;;;16.00;96.80;;;;;;5090781;28;20252;-71
2022/04/24 01:05:40;;;;;;;;;;;16.00;96.90;;;;;;5090663;28;20356;-72
2022/04/24 01:08:06;;;;;;;;;;;16.00;96.90;;;;;;5089028;28;19966;-72
2022/04/24 01:10:38;;;;;;;;;;;16.00;97.10;;;;;;5089035;28;20035;-72
2022/04/24 01:13:04;;;;;;;;;;;16.00;97.10;;;;;;5089079;28;20002;-71
2022/04/24 01:15:51;;;;;;;;;;;16.00;97.30;;;;;;5090503;28;20232;-73
2022/04/24 01:18:18;;;;;;;;;;;16.00;97.40;;;;;;5090502;28;20003;-72
2022/04/24 01:20:44;;;;;;;;;;;16.00;97.50;;;;;;5090418;28;19909;-72
2022/04/24 01:23:09;;;;;;;;;;;16.00;97.50;;;;;;5092258;28;19939;-70
2022/04/24 01:25:35;;;;;;;;;;;16.00;97.40;;;;;;5094847;28;19911;-71
2022/04/24 01:28:05;;;;;;;;;;;16.00;97.60;;;;;;5092917;28;19908;-71
2022/04/24 01:30:31;;;;;;;;;;;16.00;97.60;;;;;;5089531;28;20055;-71
2022/04/24 01:32:57;;;;;;;;;;;16.00;97.70;;;;;;5094613;28;20279;-72
2022/04/24 01:35:23;;;;;;;;;;;16.00;97.70;;;;;;5092987;28;19909;-70
2022/04/24 01:37:49;;;;;;;;;;;16.00;97.50;;;;;;5094477;28;19930;-72
2022/04/24 01:40:15;;;;;;;;;;;15.90;97.50;;;;;;5093290;28;19936;-72
2022/04/24 01:42:40;;;;;;;;;;;15.90;97.60;;;;;;5094044;28;19920;-73
2022/04/24 01:45:07;;;;;;;;;;;15.90;97.70;;;;;;5094319;28;19908;-72
2022/04/24 01:47:32;;;;;;;;;;;15.90;97.80;;;;;;5094420;28;19914;-71
2022/04/24 01:49:58;;;;;;;;;;;15.90;97.90;;;;;;5094218;28;19908;-72
2022/04/24 01:52:24;;;;;;;;;;;15.90;97.90;;;;;;5094350;28;19908;-72
2022/04/24 01:54:50;;;;;;;;;;;15.90;98.10;;;;;;5092743;28;19908;-72
2022/04/24 01:57:16;;;;;;;;;;;15.80;98.10;;;;;;5094092;28;19960;-71
2022/04/24 01:59:51;;;;;;;;;;;15.90;98.20;;;;;;5092663;28;20248;-72
2022/04/24 02:02:17;;;;;;;;;;;15.80;98.20;;;;;;5094040;28;20007;-73
2022/04/24 02:04:42;;;;;;;;;;;15.80;98.30;;;;;;5093815;28;20097;-72
2022/04/24 02:07:08;;;;;;;;;;;15.80;98.50;;;;;;5094004;28;19927;-72
2022/04/24 02:09:35;;;;;;;;;;;15.80;98.70;;;;;;5094065;28;19918;-72
2022/04/24 02:12:01;;;;;;;;;;;15.80;98.80;;;;;;5094033;28;20038;-72
2022/04/24 02:14:26;;;;;;;;;;;15.80;98.90;;;;;;5093861;28;19947;-72
2022/04/24 02:16:53;;;;;;;;;;;15.80;98.80;;;;;;5093692;28;19947;-71
2022/04/24 02:19:19;;;;;;;;;;;15.80;98.90;;;;;;5093983;28;19909;-73
2022/04/24 02:21:44;;;;;;;;;;;15.80;99.10;;;;;;5093795;28;19912;-71
2022/04/24 02:24:10;;;;;;;;;;;15.80;99.30;;;;;;5093961;28;20312;-71
2022/04/24 02:26:36;;;;;;;;;;;15.80;99.70;;;;;;5093636;28;19992;-72
2022/04/24 02:29:02;;;;;;;;;;;15.80;99.80;;;;;;5093494;28;19983;-72
2022/04/24 02:31:28;;;;;;;;;;;15.80;99.90;;;;;;5093411;28;19912;-71
2022/04/24 02:33:53;;;;;;;;;;;15.80;99.90;;;;;;5093770;28;19908;-73
2022/04/24 02:36:19;;;;;;;;;;;15.80;99.90;;;;;;5093352;28;19917;-72
2022/04/24 02:38:45;;;;;;;;;;;15.80;99.90;;;;;;5093377;28;19924;-70
2022/04/24 02:41:11;;;;;;;;;;;15.80;99.90;;;;;;5093166;28;19908;-72
2022/04/24 02:43:37;;;;;;;;;;;15.80;99.90;;;;;;5093555;28;20022;-71
2022/04/24 02:46:02;;;;;;;;;;;15.80;99.90;;;;;;5093406;28;19920;-71
2022/04/24 02:48:50;;;;;;;;;;;15.80;99.90;;;;;;5093067;28;19908;-72
2022/04/24 02:51:15;;;;;;;;;;;15.70;99.90;;;;;;5093384;28;19912;-71
2022/04/24 02:53:41;;;;;;;;;;;15.60;99.90;;;;;;5091551;28;19995;-72
2022/04/24 02:56:07;;;;;;;;;;;15.60;99.90;;;;;;5092982;28;19919;-72
2022/04/24 02:58:33;;;;;;;;;;;15.60;99.90;;;;;;5093014;28;19952;-71
2022/04/24 03:00:59;;;;;;;;;;;15.70;99.90;;;;;;5092868;28;19920;-71
2022/04/24 03:03:25;;;;;;;;;;;15.70;99.90;;;;;;5093013;28;20018;-72
2022/04/24 03:05:51;;;;;;;;;;;15.70;99.90;;;;;;5092846;28;19958;-71
2022/04/24 03:08:17;;;;;;;;;;;15.80;99.90;;;;;;5092960;28;19999;-71
2022/04/24 03:10:44;;;;;;;;;;;15.80;99.90;;;;;;5092702;28;19946;-73
2022/04/24 03:13:10;;;;;;;;;;;15.80;99.90;;;;;;5093088;28;19908;-71
2022/04/24 03:15:37;;;;;;;;;;;15.80;99.90;;;;;;5092776;28;20375;-71
2022/04/24 03:18:04;;;;;;;;;;;15.70;99.90;;;;;;5092445;28;19908;-72
2022/04/24 03:20:51;;;;;;;;;;;15.70;99.90;;;;;;5092290;28;20069;-71
2022/04/24 03:23:17;;;;;;;;;;;15.70;99.90;;;;;;5091017;28;19917;-73
2022/04/24 03:25:52;;;;;;;;;;;15.60;99.90;;;;;;5092269;28;20314;-72
2022/04/24 03:28:18;;;;;;;;;;;15.40;99.90;;;;;;5092665;28;19957;-71
2022/04/24 03:30:44;;;;;;;;;;;15.40;99.90;;;;;;5092380;28;19999;-72
2022/04/24 03:33:10;;;;;;;;;;;15.40;99.90;;;;;;5092598;28;19908;-71
2022/04/24 03:35:36;;;;;;;;;;;15.40;99.90;;;;;;5092366;28;20046;-72
2022/04/24 03:38:02;;;;;;;;;;;15.40;99.90;;;;;;5092344;28;19908;-72
2022/04/24 03:40:28;;;;;;;;;;;15.30;99.90;;;;;;5092479;28;19915;-73
2022/04/24 03:42:54;;;;;;;;;;;15.30;99.90;;;;;;5091961;28;19920;-71
2022/04/24 03:45:20;;;;;;;;;;;15.30;99.90;;;;;;5091782;28;19908;-71
2022/04/24 03:47:47;;;;;;;;;;;15.30;99.90;;;;;;5091946;28;19916;-71
2022/04/24 03:50:14;;;;;;;;;;;15.30;99.90;;;;;;5092017;28;20328;-71
2022/04/24 03:52:40;;;;;;;;;;;15.30;99.90;;;;;;5092123;28;20379;-71
2022/04/24 03:55:06;;;;;;;;;;;15.30;99.90;;;;;;5091936;28;20285;-72
2022/04/24 03:57:50;;;;;;;;;;;15.30;99.90;;;;;;5092020;28;19970;-71
2022/04/24 04:00:16;;;;;;;;;;;15.30;99.90;;;;;;5092174;28;20364;-72
2022/04/24 04:02:45;;;;;;;;;;;15.30;99.90;;;;;;5091876;28;19908;-71
2022/04/24 04:05:13;;;;;;;;;;;15.30;99.90;;;;;;5091853;28;19916;-71
2022/04/24 04:07:38;;;;;;;;;;;15.30;99.90;;;;;;5091719;28;20356;-72
2022/04/24 04:10:05;;;;;;;;;;;15.30;99.90;;;;;;5091617;28;19908;-71
2022/04/24 04:12:30;;;;;;;;;;;15.30;99.90;;;;;;5091604;28;19915;-69
2022/04/24 04:14:56;;;;;;;;;;;15.30;99.90;;;;;;5091543;28;19908;-70
2022/04/24 04:17:22;;;;;;;;;;;15.30;99.90;;;;;;5091766;28;20228;-70
2022/04/24 04:19:48;;;;;;;;;;;15.30;99.90;;;;;;5091620;28;19995;-70
2022/04/24 04:22:14;;;;;;;;;;;15.30;99.90;;;;;;5091318;28;20275;-70
2022/04/24 04:24:39;;;;;;;;;;;15.30;99.90;;;;;;5091570;28;19916;-71
2022/04/24 04:27:05;;;;;;;;;;;15.30;99.90;;;;;;5091479;28;19970;-70
2022/04/24 04:29:31;;;;;;;;;;;15.40;99.90;;;;;;5091205;28;19927;-70
2022/04/24 04:31:57;;;;;;;;;;;15.40;99.90;;;;;;5091460;28;19931;-71
2022/04/24 04:34:22;;;;;;;;;;;15.40;99.90;;;;;;5091174;28;19962;-70
2022/04/24 04:36:48;;;;;;;;;;;15.50;99.90;;;;;;5091588;28;19908;-70
2022/04/24 04:39:14;;;;;;;;;;;15.50;99.90;;;;;;5091086;28;20007;-70
2022/04/24 04:41:40;;;;;;;;;;;15.50;99.90;;;;;;5091095;28;20393;-70
2022/04/24 04:44:06;;;;;;;;;;;15.70;99.90;;;;;;5091269;28;19920;-70
2022/04/24 04:46:31;;;;;;;;;;;15.80;99.90;;;;;;5091108;28;20228;-71
2022/04/24 04:48:57;;;;;;;;;;;15.90;99.90;;;;;;5091402;28;19920;-71
2022/04/24 04:51:23;;;;;;;;;;;16.10;99.90;;;;;;5090141;28;19908;-71
2022/04/24 04:53:51;;;;;;;;;;;16.30;99.90;;;;;;5090925;28;20014;-70
2022/04/24 04:56:18;;;;;;;;;;;16.40;99.90;;;;;;5091090;28;20013;-71
2022/04/24 04:58:44;;;;;;;;;;;16.60;99.90;;;;;;5088570;28;19920;-71
2022/04/24 05:01:10;;;;;;;;;;;16.80;99.90;;;;;;5091141;28;19908;-71
2022/04/24 05:03:35;;;;;;;;;;;17.00;99.90;;;;;;5089202;28;20355;-69
2022/04/24 05:06:01;;;;;;;;;;;17.10;99.90;;;;;;5091002;28;19908;-71
2022/04/24 05:08:27;;;;;;;;;;;17.30;99.90;;;;;;5090938;28;20308;-70
2022/04/24 05:10:53;;;;;;;;;;;17.40;99.90;;;;;;5090839;28;20417;-70
2022/04/24 05:13:20;;;;;;;;;;;17.90;99.90;;;;;;5090553;28;19908;-70
2022/04/24 05:15:46;;;;;;;;;;;18.80;99.90;;;;;;5090619;28;20331;-69
2022/04/24 05:18:12;;;;;;;;;;;19.70;98.40;;;;;;5090838;28;19908;-71
2022/04/24 05:20:52;;;;;;;;;;;20.40;97.70;;;;;;5090481;28;19978;-71
2022/04/24 05:23:18;;;;;;;;;;;21.10;95.70;;;;;;5089179;28;20003;-70
2022/04/24 05:25:44;;;;;;;;;;;21.40;94.70;;;;;;5090968;28;20356;-71
2022/04/24 05:28:10;;;;;;;;;;;21.00;94.70;;;;;;5090787;28;20324;-70
2022/04/24 05:30:36;;;;;;;;;;;20.70;95.20;;;;;;5090632;28;19960;-71
2022/04/24 05:33:02;;;;;;;;;;;20.30;95.10;;;;;;5088611;28;19919;-70
2022/04/24 05:35:27;;;;;;;;;;;19.90;95.50;;;;;;5090131;28;19916;-71
2022/04/24 05:37:53;;;;;;;;;;;19.40;96.10;;;;;;5090421;28;19908;-71
2022/04/24 05:40:19;;;;;;;;;;;19.10;96.70;;;;;;5088999;28;19968;-72
2022/04/24 05:42:54;;;;;;;;;;;19.00;97.60;;;;;;5090165;28;20272;-71
2022/04/24 05:45:22;;;;;;;;;;;19.50;97.50;;;;;;5090527;28;19935;-71
2022/04/24 05:47:49;;;;;;;;;;;20.90;95.80;;;;;;5090030;28;19915;-70
2022/04/24 05:50:14;;;;;;;;;;;22.20;93.50;;;;;;5090106;28;19908;-72
2022/04/24 05:52:40;;;;;;;;;;;23.70;91.70;;;;;;5090497;28;19908;-72
2022/04/24 05:55:07;;;;;;;;;;;25.40;90.30;;;;;;5090279;28;20367;-72
2022/04/24 05:57:32;;;;;;;;;;;26.80;86.10;;;;;;5088573;28;20391;-72
2022/04/24 05:59:58;;;;;;;;;;;27.90;83.30;;;;;;5090652;28;19945;-71
2022/04/24 06:02:24;;;;;;;;;;;28.10;80.80;;;;;;5090407;28;20387;-72
2022/04/24 06:04:50;;;;;;;;;;;28.40;80.40;;;;;;5090158;28;20301;-72
2022/04/24 06:07:16;;;;;;;;;;;29.40;77.90;;;;;;5090375;28;19923;-71
2022/04/24 06:09:42;;;;;;;;;;;29.80;76.50;;;;;;5092543;28;19962;-73
2022/04/24 06:12:08;;;;;;;;;;;29.90;76.10;;;;;;5094252;28;19912;-72
2022/04/24 06:14:34;;;;;;;;;;;29.00;75.30;;;;;;5094174;28;19952;-73
2022/04/24 06:17:00;;;;;;;;;;;28.50;77.70;;;;;;5094680;28;20063;-71
2022/04/24 06:19:26;;;;;;;;;;;28.10;78.10;;;;;;5093109;28;19923;-71
2022/04/24 06:21:52;;;;;;;;;;;28.10;79.50;;;;;;5094879;28;20375;-71
2022/04/24 06:24:18;;;;;;;;;;;29.20;77.90;;;;;;5094387;28;20070;-72
2022/04/24 06:26:44;;;;;;;;;;;30.30;75.50;;;;;;5094774;28;19908;-73
2022/04/24 06:29:11;;;;;;;;;;;30.00;74.50;;;;;;5094442;28;20244;-72
2022/04/24 06:31:37;;;;;;;;;;;30.30;75.00;;;;;;5091986;28;20434;-71
2022/04/24 06:34:03;;;;;;;;;;;30.60;74.90;;;;;;5094272;28;19943;-73
2022/04/24 06:36:29;;;;;;;;;;;31.30;73.80;;;;;;5094350;28;20212;-71
2022/04/24 06:38:55;;;;;;;;;;;31.80;72.10;;;;;;5094426;28;19908;-70
2022/04/24 06:41:21;;;;;;;;;;;31.20;72.80;;;;;;5083771;28;19916;-73
2022/04/24 06:43:46;;;;;;;;;;;30.70;72.90;;;;;;5074091;28;19916;-72
2022/04/24 06:46:12;;;;;;;;;;;30.10;75.50;;;;;;5073900;28;19934;-71
2022/04/24 06:48:38;;;;;;;;;;;30.60;74.20;;;;;;5074089;28;19955;-72
2022/04/24 06:51:04;;;;;;;;;;;31.40;72.10;;;;;;5073983;28;19912;-72
2022/04/24 06:53:30;;;;;;;;;;;32.00;71.70;;;;;;5073825;28;19915;-71
2022/04/24 06:55:56;;;;;;;;;;;31.80;71.60;;;;;;5073548;28;19923;-75
2022/04/24 06:58:24;;;;;;;;;;;32.20;71.10;;;;;;5081698;28;20003;-74
2022/04/24 07:00:50;;;;;;;;;;;32.50;69.30;;;;;;5093489;28;19915;-76
2022/04/24 07:03:17;;;;;;;;;;;33.90;68.60;;;;;;5093344;28;20000;-76
2022/04/24 07:05:43;;;;;;;;;;;34.20;66.30;;;;;;5093476;28;20002;-73
2022/04/24 07:08:11;;;;;;;;;;;34.00;66.40;;;;;;5093906;28;20351;-75
2022/04/24 07:10:37;;;;;;;;;;;33.80;67.80;;;;;;5093584;28;20332;-76
2022/04/24 07:13:03;;;;;;;;;;;33.70;65.80;;;;;;5092537;28;19943;-73
2022/04/24 07:15:30;;;;;;;;;;;32.90;66.70;;;;;;5093058;28;19908;-76
2022/04/24 07:17:56;;;;;;;;;;;32.40;68.70;;;;;;5093411;28;19912;-76
2022/04/24 07:20:22;;;;;;;;;;;32.90;67.90;;;;;;5092112;28;19917;-76
2022/04/24 07:22:49;;;;;;;;;;;32.80;67.40;;;;;;5092966;28;20391;-77
2022/04/24 07:25:16;;;;;;;;;;;31.60;69.20;;;;;;5092885;28;19993;-75
2022/04/24 07:27:42;;;;;;;;;;;31.50;70.40;;;;;;5093198;28;19908;-76
2022/04/24 07:30:17;;;;;;;;;;;31.10;71.20;;;;;;5093074;28;19908;-76
2022/04/24 07:32:47;;;;;;;;;;;30.70;72.10;;;;;;5093170;28;19944;-76
2022/04/24 07:35:13;;;;;;;;;;;30.30;72.60;;;;;;5093224;28;19998;-79
2022/04/24 07:37:40;;;;;;;;;;;29.30;73.60;;;;;;5091398;28;19912;-78
2022/04/24 07:40:06;;;;;;;;;;;28.60;74.80;;;;;;5092867;28;19909;-77
2022/04/24 07:42:42;;;;;;;;;;;27.70;77.50;;;;;;5092553;28;19934;-75
2022/04/24 07:45:08;;;;;;;;;;;26.90;77.80;;;;;;5092993;28;20229;-78
2022/04/24 07:47:34;;;;;;;;;;;26.70;80.50;;;;;;5092619;28;19908;-77
2022/04/24 07:50:00;;;;;;;;;;;27.00;82.40;;;;;;5093168;28;19908;-77
2022/04/24 07:52:25;;;;;;;;;;;26.80;79.70;;;;;;5092943;28;19919;-77
2022/04/24 07:54:51;;;;;;;;;;;26.50;80.60;;;;;;5091377;28;20264;-78
2022/04/24 07:57:17;;;;;;;;;;;26.40;81.60;;;;;;5092879;28;19998;-78
2022/04/24 07:59:43;;;;;;;;;;;26.50;79.60;;;;;;5092523;28;19908;-78
2022/04/24 08:02:10;;;;;;;;;;;26.50;79.70;;;;;;5092789;28;19919;-79
2022/04/24 08:04:36;;;;;;;;;;;26.80;80.10;;;;;;5090667;28;19947;-79
2022/04/24 08:07:02;;;;;;;;;;;27.10;79.60;;;;;;5092109;28;19908;-78
2022/04/24 08:09:29;;;;;;;;;;;27.20;80.20;;;;;;5092449;28;20494;-79
2022/04/24 08:11:54;;;;;;;;;;;27.30;79.30;;;;;;5092177;28;20390;-78
2022/04/24 08:14:21;;;;;;;;;;;27.50;79.40;;;;;;5092127;28;19909;-79
2022/04/24 08:16:47;;;;;;;;;;;27.50;79.20;;;;;;5091030;28;19980;-80
2022/04/24 08:19:13;;;;;;;;;;;27.00;78.90;;;;;;5093149;28;19912;-80
2022/04/24 08:21:39;;;;;;;;;;;26.70;80.40;;;;;;5092850;28;20375;-79
2022/04/24 08:24:04;;;;;;;;;;;26.40;81.40;;;;;;5092688;28;19920;-80
2022/04/24 08:26:30;;;;;;;;;;;26.10;82.10;;;;;;5092792;28;19919;-79
2022/04/24 08:28:56;;;;;;;;;;;25.90;82.70;;;;;;5092685;28;19912;-77
2022/04/24 08:31:22;;;;;;;;;;;26.10;82.70;;;;;;5092857;28;19927;-78
2022/04/24 08:33:50;;;;;;;;;;;26.20;83.40;;;;;;5091544;28;20252;-79
2022/04/24 08:36:15;;;;;;;;;;;26.30;83.50;;;;;;5092896;28;19953;-79
2022/04/24 08:38:41;;;;;;;;;;;26.30;82.50;;;;;;5092212;28;19920;-78
2022/04/24 08:41:09;;;;;;;;;;;26.00;83.80;;;;;;5092375;28;19991;-78
2022/04/24 08:43:35;;;;;;;;;;;25.60;85.50;;;;;;5092972;28;19943;-78
2022/04/24 08:46:02;;;;;;;;;;;25.60;86.30;;;;;;5092598;28;19931;-80
2022/04/24 08:48:28;;;;;;;;;;;25.70;85.60;;;;;;5091596;28;19977;-81
2022/04/24 08:50:55;;;;;;;;;;;25.50;86.00;;;;;;5090970;28;19912;-78
2022/04/24 08:53:21;;;;;;;;;;;25.50;86.40;;;;;;5089872;28;19912;-79
2022/04/24 08:55:46;;;;;;;;;;;25.70;86.60;;;;;;5090844;28;19912;-78
2022/04/24 08:58:13;;;;;;;;;;;26.00;86.30;;;;;;5090348;28;20050;-79
2022/04/24 09:00:43;;;;;;;;;;;26.10;85.70;;;;;;5087768;28;20360;-78
2022/04/24 09:03:09;;;;;;;;;;;25.80;85.70;;;;;;5091391;28;20011;-78
2022/04/24 09:05:35;;;;;;;;;;;26.00;85.80;;;;;;5091719;28;20002;-78
2022/04/24 09:08:04;;;;;;;;;;;26.00;86.20;;;;;;5091829;28;19912;-80
2022/04/24 09:10:30;;;;;;;;;;;26.10;86.40;;;;;;5091543;28;19908;-77
2022/04/24 09:12:56;;;;;;;;;;;25.80;86.50;;;;;;5091638;28;20018;-78
2022/04/24 09:15:24;;;;;;;;;;;25.80;86.80;;;;;;5091886;28;19907;-79
2022/04/24 09:17:58;;;;;;;;;;;25.70;87.20;;;;;;5092143;28;19914;-82
2022/04/24 09:20:24;;;;;;;;;;;25.20;88.00;;;;;;5092050;28;19952;-79
2022/04/24 09:22:50;;;;;;;;;;;25.30;88.40;;;;;;5091758;28;19908;-78
2022/04/24 09:25:16;;;;;;;;;;;25.20;88.60;;;;;;5091613;28;19920;-79
2022/04/24 09:27:42;;;;;;;;;;;25.10;89.40;;;;;;5091903;28;19908;-78
2022/04/24 09:30:10;;;;;;;;;;;25.30;88.60;;;;;;5091618;28;19920;-77
2022/04/24 09:32:53;;;;;;;;;;;25.30;89.10;;;;;;5092023;28;19947;-76
2022/04/24 09:35:23;;;;;;;;;;;25.20;89.50;;;;;;5091366;28;19915;-80
2022/04/24 09:37:48;;;;;;;;;;;25.30;89.70;;;;;;5089993;28;19958;-78
2022/04/24 09:40:14;;;;;;;;;;;25.50;89.10;;;;;;5090808;28;19942;-75
2022/04/24 09:42:54;;;;;;;;;;;25.20;90.20;;;;;;5089870;28;19920;-77
2022/04/24 09:45:26;;;;;;;;;;;24.80;90.30;;;;;;5094976;28;19916;-77
2022/04/24 09:47:59;;;;;;;;;;;25.00;90.00;;;;;;5095576;28;19908;-79
2022/04/24 09:50:29;;;;;;;;;;;24.90;90.40;;;;;;5093943;28;20379;-78
2022/04/24 09:52:57;;;;;;;;;;;24.90;90.20;;;;;;5095528;28;20011;-78
2022/04/24 09:55:25;;;;;;;;;;;24.90;90.70;;;;;;5095669;28;19909;-79
2022/04/24 09:57:51;;;;;;;;;;;25.00;90.60;;;;;;5095777;28;19944;-78
2022/04/24 10:00:18;;;;;;;;;;;25.10;90.70;;;;;;5095028;28;19963;-76
2022/04/24 10:02:44;;;;;;;;;;;24.90;90.90;;;;;;5095021;28;19995;-77
2022/04/24 10:05:10;;;;;;;;;;;24.80;91.30;;;;;;5095018;28;19916;-77
2022/04/24 10:07:36;;;;;;;;;;;25.00;91.20;;;;;;5095479;28;20428;-78
2022/04/24 10:10:02;;;;;;;;;;;25.00;91.10;;;;;;5094992;28;20351;-78
2022/04/24 10:12:29;;;;;;;;;;;24.80;91.40;;;;;;5094925;28;19974;-77
2022/04/24 10:14:58;;;;;;;;;;;24.10;91.70;;;;;;5095136;28;19973;-77
2022/04/24 10:17:27;;;;;;;;;;;24.20;92.10;;;;;;5094753;28;20260;-79
2022/04/24 10:19:55;;;;;;;;;;;24.30;92.20;;;;;;5094949;28;20317;-78
2022/04/24 10:22:24;;;;;;;;;;;24.20;92.20;;;;;;5094770;28;19908;-78
2022/04/24 10:24:58;;;;;;;;;;;23.90;92.70;;;;;;5094717;28;19931;-78
2022/04/24 10:27:34;;;;;;;;;;;24.10;92.40;;;;;;5095225;28;19981;-77
2022/04/24 10:30:00;;;;;;;;;;;24.10;92.60;;;;;;5093277;28;19912;-78
2022/04/24 10:32:27;;;;;;;;;;;24.20;92.70;;;;;;5094463;28;19919;-77
2022/04/24 10:34:53;;;;;;;;;;;24.40;92.20;;;;;;5094259;28;19908;-77
2022/04/24 10:37:32;;;;;;;;;;;24.50;92.10;;;;;;5095709;28;20414;-78
2022/04/24 10:40:00;;;;;;;;;;;24.40;91.90;;;;;;5094631;28;19908;-78
2022/04/24 10:42:33;;;;;;;;;;;24.50;92.10;;;;;;5094206;28;20378;-79
2022/04/24 10:45:05;;;;;;;;;;;24.50;92.20;;;;;;5093200;28;19924;-79
2022/04/24 10:47:43;;;;;;;;;;;24.70;91.80;;;;;;5084718;28;19912;-78
2022/04/24 10:50:09;;;;;;;;;;;24.80;91.70;;;;;;5093474;28;19916;-79
2022/04/24 10:52:45;;;;;;;;;;;24.60;91.90;;;;;;5094453;28;20006;-79
2022/04/24 10:55:15;;;;;;;;;;;24.50;92.30;;;;;;5093142;28;20061;-79
2022/04/24 10:57:52;;;;;;;;;;;24.60;92.10;;;;;;5086260;28;19908;-79
2022/04/24 11:00:22;;;;;;;;;;;24.80;91.50;;;;;;5072520;28;20008;-79
2022/04/24 11:02:49;;;;;;;;;;;24.50;91.30;;;;;;5074212;28;19913;-79
2022/04/24 11:05:18;;;;;;;;;;;24.30;91.50;;;;;;5074132;28;19966;-79
2022/04/24 11:07:45;;;;;;;;;;;24.60;91.10;;;;;;5073632;28;19916;-78
2022/04/24 11:10:11;;;;;;;;;;;24.20;92.00;;;;;;5084851;28;20068;-79
2022/04/24 11:12:38;;;;;;;;;;;24.10;91.60;;;;;;5086350;28;19908;-78
2022/04/24 11:15:11;;;;;;;;;;;24.30;91.30;;;;;;5093803;28;19915;-79
2022/04/24 11:17:37;;;;;;;;;;;24.30;91.80;;;;;;5094024;28;20002;-78
2022/04/24 11:20:08;;;;;;;;;;;24.20;91.20;;;;;;5094001;28;20069;-78
2022/04/24 11:22:43;;;;;;;;;;;24.30;91.70;;;;;;5094145;28;20413;-78
2022/04/24 11:25:11;;;;;;;;;;;24.20;91.80;;;;;;5093939;28;19916;-78
2022/04/24 11:27:37;;;;;;;;;;;24.20;93.40;;;;;;5093934;28;19912;-79
2022/04/24 11:30:13;;;;;;;;;;;24.40;91.10;;;;;;5093577;28;19977;-78
2022/04/24 11:32:38;;;;;;;;;;;24.50;91.00;;;;;;5093770;28;19908;-78
2022/04/24 11:35:06;;;;;;;;;;;24.30;91.70;;;;;;5093568;28;19908;-79
2022/04/24 11:37:32;;;;;;;;;;;24.00;92.30;;;;;;5094017;28;20314;-79
2022/04/24 11:40:01;;;;;;;;;;;24.20;91.90;;;;;;5093586;28;19908;-78
2022/04/24 11:42:27;;;;;;;;;;;24.40;91.80;;;;;;5093190;28;19970;-78
2022/04/24 11:50:22;;;;;;;;;;;24.10;92.20;;;;;;5093609;28;19915;-78
2022/04/24 11:52:50;;;;;;;;;;;24.10;92.20;;;;;;5092991;28;19908;-77
2022/04/24 11:56:00;;;;;;;;;;;23.90;92.30;;;;;;5093460;28;19979;-75
2022/04/24 11:58:09;;;;;;;;;;;23.60;93.10;;;;;;5092964;28;19908;-77
2022/04/24 12:00:37;;;;;;;;;;;23.90;93.10;;;;;;5093235;28;19914;-75
2022/04/24 12:03:04;;;;;;;;;;;24.10;93.00;;;;;;5092774;28;19973;-76
2022/04/24 12:05:30;;;;;;;;;;;24.20;92.50;;;;;;5092770;28;19908;-77
2022/04/24 12:07:56;;;;;;;;;;;24.10;92.70;;;;;;5092273;28;20003;-78
2022/04/24 12:10:23;;;;;;;;;;;24.30;92.30;;;;;;5092588;28;19984;-78
2022/04/24 12:12:50;;;;;;;;;;;24.40;92.30;;;;;;5088320;28;19919;-79
2022/04/24 12:15:16;;;;;;;;;;;24.50;92.40;;;;;;5079798;28;19964;-78
2022/04/24 12:17:49;;;;;;;;;;;24.30;92.30;;;;;;5072327;28;19915;-78
2022/04/24 12:20:15;;;;;;;;;;;24.20;92.40;;;;;;5072514;28;19988;-78
2022/04/24 12:22:41;;;;;;;;;;;24.00;93.10;;;;;;5072042;28;19931;-78
2022/04/24 12:25:08;;;;;;;;;;;24.10;93.20;;;;;;5071988;28;19935;-78
2022/04/24 12:27:34;;;;;;;;;;;24.40;92.80;;;;;;5072094;28;19908;-78
2022/04/24 12:30:03;;;;;;;;;;;24.50;92.90;;;;;;5072100;28;20422;-77
2022/04/24 12:32:29;;;;;;;;;;;24.40;92.50;;;;;;5072302;28;19908;-78
2022/04/24 12:34:54;;;;;;;;;;;24.20;93.00;;;;;;5071895;28;19908;-78
2022/04/24 12:37:27;;;;;;;;;;;24.30;93.10;;;;;;5070415;28;20355;-77
2022/04/24 12:39:53;;;;;;;;;;;24.40;92.90;;;;;;5071857;28;20361;-77
2022/04/24 12:42:19;;;;;;;;;;;24.40;93.10;;;;;;5071594;28;19920;-77
2022/04/24 12:44:46;;;;;;;;;;;23.90;93.60;;;;;;5071807;28;20336;-78
2022/04/24 12:47:13;;;;;;;;;;;23.80;94.00;;;;;;5103504;28;20149;-78
2022/04/24 12:49:44;;;;;;;;;;;23.70;94.10;;;;;;5072141;28;20021;-78
2022/04/24 12:52:10;;;;;;;;;;;23.70;94.60;;;;;;5071487;28;19970;-77
2022/04/24 12:54:36;;;;;;;;;;;23.70;94.70;;;;;;5071862;28;20007;-77
2022/04/24 12:57:06;;;;;;;;;;;23.70;94.50;;;;;;5071561;28;20391;-79
2022/04/24 12:59:34;;;;;;;;;;;23.70;94.60;;;;;;5078353;28;19946;-77
2022/04/24 13:02:07;;;;;;;;;;;23.70;94.60;;;;;;5091587;28;19961;-78
2022/04/24 13:04:34;;;;;;;;;;;24.00;94.50;;;;;;5091747;28;19987;-78
2022/04/24 13:07:00;;;;;;;;;;;24.20;94.10;;;;;;5091500;28;19908;-79
2022/04/24 13:09:27;;;;;;;;;;;24.30;94.20;;;;;;5090195;28;20306;-77
2022/04/24 13:11:56;;;;;;;;;;;24.50;94.00;;;;;;5091230;28;19915;-78
2022/04/24 13:14:23;;;;;;;;;;;24.70;93.50;;;;;;5091161;28;19955;-78
2022/04/24 13:19:33;;;;;;;;;;;24.40;94.30;;;;;;5090993;28;19915;-78
2022/04/24 13:21:59;;;;;;;;;;;24.50;94.20;;;;;;5091865;28;19908;-78
2022/04/24 13:24:25;;;;;;;;;;;24.50;94.40;;;;;;5091888;28;19923;-77
2022/04/24 13:26:51;;;;;;;;;;;24.70;94.00;;;;;;5091623;28;19908;-78
2022/04/24 13:29:16;;;;;;;;;;;24.80;93.90;;;;;;5092291;28;19908;-78
2022/04/24 13:31:47;;;;;;;;;;;24.70;93.80;;;;;;5091873;28;19919;-77
2022/04/24 13:34:14;;;;;;;;;;;24.50;93.70;;;;;;5092159;28;19919;-78
2022/04/24 13:36:40;;;;;;;;;;;24.50;93.80;;;;;;5091594;28;20363;-78
2022/04/24 13:39:06;;;;;;;;;;;24.50;93.50;;;;;;5092041;28;19915;-76
2022/04/24 13:41:32;;;;;;;;;;;24.50;93.20;;;;;;5091701;28;19915;-76
2022/04/24 13:43:59;;;;;;;;;;;24.50;93.40;;;;;;5090752;28;20282;-77
2022/04/24 13:46:27;;;;;;;;;;;24.40;93.40;;;;;;5086044;28;19908;-78
2022/04/24 13:48:53;;;;;;;;;;;24.50;93.60;;;;;;5068666;28;19995;-78
2022/04/24 13:51:22;;;;;;;;;;;24.50;93.80;;;;;;5067075;28;20016;-78
2022/04/24 13:53:48;;;;;;;;;;;24.40;94.00;;;;;;5068576;28;20004;-78
2022/04/24 13:56:14;;;;;;;;;;;24.50;94.00;;;;;;5070089;28;19921;-79
2022/04/24 13:58:40;;;;;;;;;;;24.30;94.20;;;;;;5070082;28;20296;-78
2022/04/24 14:01:07;;;;;;;;;;;24.50;94.20;;;;;;5069976;28;19908;-78
2022/04/24 14:03:33;;;;;;;;;;;24.50;94.00;;;;;;5070568;28;19928;-78
2022/04/24 14:05:59;;;;;;;;;;;24.20;94.50;;;;;;5070140;28;19915;-78
2022/04/24 14:08:27;;;;;;;;;;;23.90;94.50;;;;;;5070204;28;19908;-78
2022/04/24 14:10:54;;;;;;;;;;;23.50;95.20;;;;;;5068353;28;19913;-78
2022/04/24 14:13:20;;;;;;;;;;;23.80;95.30;;;;;;5069618;28;19958;-78
2022/04/24 14:15:46;;;;;;;;;;;23.80;94.80;;;;;;5069845;28;19997;-77
2022/04/24 14:18:11;;;;;;;;;;;24.00;94.80;;;;;;5071093;28;20349;-78
2022/04/24 14:20:53;;;;;;;;;;;23.60;94.50;;;;;;5070841;28;20468;-78
2022/04/24 14:23:21;;;;;;;;;;;23.30;94.90;;;;;;5070980;28;19909;-77
2022/04/24 14:25:52;;;;;;;;;;;23.20;94.90;;;;;;5070756;28;19924;-77
2022/04/24 14:28:18;;;;;;;;;;;23.20;95.20;;;;;;5070940;28;19919;-78